Ana Sayfa
METAR-TAF:

METAR-TAF

Havaalanları :

Skyhaven Airport

Rochester, New Hampshire, Amerika Birleşik Devletleri

Enlem: 43-16-41N, Boylam: 070-55-20W, yükseklik: 98 m

Güncel hava durumu gözlemi

Rapor saat 09:51 UTC de 38 dakika önce yapıldı.
Rüzgar kuzeybatıdan 4 kt
Sıcaklık -4°C
Nem 68%
Basınç 1013 hPa
Görüş mesafesi: 16.1 km
Açık gökyüzü

METAR: KDAW 290951Z AUTO 31004KT 10SM CLR M04/M09 A2990 RMK AO2 SLP126 T10391089

Saat: 05:29 (10:29 UTC)


TAF: eksik

4.000'den fazla havaalanı için hava durumu gözlemleri ve tahminleri (METAR ve TAF raporları).

Kullanılabilir istasyonlar harita üzerinde sarı ve kırmızı noktalarla gösterilir.

İstasyonun adını görmek için fareyi noktanın üzerinde gezdirin.

Sonrasında hava gözlem ve tahminlerini görmek için tıklayın.

Haritayı değiştirmek için: yaklaştırmak için siyah artı işaretli yeşil düğmeye ve uzaklaştırmak için de eksi işaretli düğmeye hızla tıklayın; bitişik haritalar için yeşil okları kullanın.


METAR-TAF: